Time;durP1;ratioP1;P1;durP2;ratioP2;P2;SDS_P1;SDS_P2;PMS_P1;PMS_P2;Temp;Humidity;BMP_temperature;BMP_pressure;BME280_temperature;BME280_humidity;BME280_pressure;Samples;Min_cycle;Max_cycle;Signal;HPM_P1;HPM_P2
2022/01/04 00:02:04;;;;;;;4.07;3.77;;;;;;;11.57;61.18;99447.03;5092569;28;20660;-65
2022/01/04 00:04:31;;;;;;;4.10;3.80;;;;;;;11.48;61.77;99448.25;5093649;28;20220;-65
2022/01/04 00:06:58;;;;;;;4.23;4.03;;;;;;;11.50;61.66;99440.88;5093122;28;20191;-65
2022/01/04 00:09:25;;;;;;;4.70;4.30;;;;;;;11.46;61.67;99434.34;5092712;28;20192;-64
2022/01/04 00:13:21;;;;;;;4.40;4.10;;;;;;;11.51;61.18;99437.19;5092653;28;20191;-65
2022/01/04 00:14:46;;;;;;;4.83;4.43;;;;;;;11.55;61.47;99437.63;5092199;28;20643;-64
2022/01/04 00:17:13;;;;;;;4.70;4.40;;;;;;;11.55;61.08;99440.28;5092425;28;20257;-64
2022/01/04 00:19:40;;;;;;;4.97;4.67;;;;;;;11.45;61.49;99435.34;5092301;28;20192;-64
2022/01/04 00:22:08;;;;;;;4.67;4.37;;;;;;;11.42;61.46;99438.41;5092314;28;20219;-64
2022/01/04 00:24:35;;;;;;;4.80;4.37;;;;;;;11.45;61.57;99430.03;5092443;28;20603;-65
2022/01/04 00:27:01;;;;;;;4.57;4.27;;;;;;;11.42;61.90;99441.06;5092411;28;20272;-64
2022/01/04 00:29:28;;;;;;;5.20;4.70;;;;;;;11.28;62.51;99444.75;5092249;28;20561;-64
2022/01/04 00:31:56;;;;;;;5.83;5.43;;;;;;;11.18;62.96;99436.31;5092455;28;20631;-64
2022/01/04 00:34:23;;;;;;;8.17;5.07;;;;;;;11.08;63.71;99434.03;5092416;28;20557;-65
2022/01/04 00:36:50;;;;;;;5.40;5.00;;;;;;;10.97;64.12;99433.81;5092273;28;20253;-65
2022/01/04 00:39:17;;;;;;;5.47;4.97;;;;;;;10.98;64.14;99435.44;5091746;28;20195;-66
2022/01/04 00:41:43;;;;;;;6.57;5.47;;;;;;;10.79;64.66;99436.22;5091947;28;20184;-64
2022/01/04 00:44:10;;;;;;;6.03;5.50;;;;;;;10.71;65.12;99434.53;5092010;28;20215;-66
2022/01/04 00:46:37;;;;;;;6.10;5.60;;;;;;;10.72;65.00;99440.66;5092220;28;20191;-64
2022/01/04 00:49:11;;;;;;;6.30;5.70;;;;;;;10.75;64.94;99438.44;5091448;28;20249;-65
2022/01/04 00:51:39;;;;;;;5.27;4.77;;;;;;;10.67;64.60;99440.44;5090005;28;20209;-65
2022/01/04 00:54:06;;;;;;;4.37;4.07;;;;;;;10.70;64.65;99440.03;5090142;28;20203;-65
2022/01/04 00:56:33;;;;;;;4.67;4.27;;;;;;;10.65;64.45;99429.19;5092180;28;20339;-64
2022/01/04 00:58:59;;;;;;;4.10;3.80;;;;;;;10.61;65.16;99423.47;5091862;28;20724;-65
2022/01/04 01:01:26;;;;;;;4.50;3.87;;;;;;;10.59;64.72;99430.00;5091706;28;20191;-65
2022/01/04 01:03:54;;;;;;;4.23;4.03;;;;;;;10.62;64.87;99422.44;5091783;28;20223;-66
2022/01/04 01:06:22;;;;;;;4.17;3.87;;;;;;;10.71;64.11;99420.44;5091645;28;20618;-64
2022/01/04 01:08:49;;;;;;;4.43;4.13;;;;;;;10.70;64.31;99426.75;5091935;28;20241;-65
2022/01/04 01:11:16;;;;;;;3.93;3.63;;;;;;;10.68;64.47;99431.47;5091201;28;20200;-65
2022/01/04 01:13:43;;;;;;;3.80;3.60;;;;;;;10.74;64.20;99422.69;5091430;28;20196;-65
2022/01/04 01:16:10;;;;;;;4.20;3.60;;;;;;;10.79;64.21;99425.59;5091805;28;20253;-65
2022/01/04 01:18:38;;;;;;;8.53;3.63;;;;;;;10.81;64.00;99424.38;5091047;28;20246;-65
2022/01/04 01:21:05;;;;;;;4.13;3.83;;;;;;;10.88;63.31;99424.38;5090507;28;20191;-64
2022/01/04 01:23:34;;;;;;;3.87;3.60;;;;;;;10.90;63.13;99431.13;5091798;28;20220;-64
2022/01/04 01:26:02;;;;;;;4.50;4.20;;;;;;;10.91;62.65;99427.44;5090577;28;20660;-64
2022/01/04 01:28:28;;;;;;;3.60;3.40;;;;;;;10.98;62.82;99430.13;5091128;28;20191;-65
2022/01/04 01:30:55;;;;;;;4.00;3.63;;;;;;;11.06;62.61;99429.94;5091346;28;20193;-65
2022/01/04 01:33:23;;;;;;;3.93;3.63;;;;;;;11.03;62.70;99428.50;5091657;28;20200;-65
2022/01/04 01:35:51;;;;;;;4.43;3.80;;;;;;;11.07;62.40;99428.94;5091775;28;20188;-65
2022/01/04 01:38:19;;;;;;;3.73;3.43;;;;;;;11.05;62.54;99430.97;5091163;28;20244;-65
2022/01/04 01:40:48;;;;;;;4.23;3.93;;;;;;;11.04;62.74;99418.72;5091739;28;20277;-65
2022/01/04 01:43:15;;;;;;;3.90;3.70;;;;;;;10.99;62.87;99415.84;5092006;28;20263;-64
2022/01/04 01:45:42;;;;;;;4.33;4.03;;;;;;;10.90;63.66;99414.38;5091481;28;20195;-65
2022/01/04 01:48:09;;;;;;;4.20;3.90;;;;;;;10.91;63.95;99408.84;5093088;28;20215;-64
2022/01/04 01:50:35;;;;;;;4.37;4.07;;;;;;;10.86;64.17;99405.16;5095002;28;20249;-65
2022/01/04 01:53:03;;;;;;;5.33;4.90;;;;;;;10.67;64.85;99406.72;5095220;28;20249;-65
2022/01/04 01:55:30;;;;;;;5.23;4.87;;;;;;;10.66;65.17;99397.13;5096222;28;20191;-65
2022/01/04 01:57:58;;;;;;;5.87;4.80;;;;;;;10.67;65.18;99392.63;5094875;28;20219;-65
2022/01/04 02:00:28;;;;;;;4.27;3.87;;;;;;;10.59;65.28;99392.81;5094860;28;20196;-65
2022/01/04 02:02:55;;;;;;;3.90;3.60;;;;;;;10.66;64.75;99394.47;5094784;28;20655;-65
2022/01/04 02:05:22;;;;;;;5.07;4.13;;;;;;;10.67;65.08;99389.97;5095420;28;20281;-66
2022/01/04 02:07:50;;;;;;;4.33;4.00;;;;;;;10.58;64.96;99407.91;5094606;28;20196;-65
2022/01/04 02:10:16;;;;;;;4.87;4.03;;;;;;;10.52;64.89;99402.56;5094602;28;20244;-65
2022/01/04 02:12:46;;;;;;;5.33;4.03;;;;;;;10.54;65.54;99411.19;5095050;28;20192;-65
2022/01/04 02:15:17;;;;;;;5.80;4.60;;;;;;;10.45;65.23;99405.22;5094391;28;20191;-65
2022/01/04 02:17:44;;;;;;;4.67;4.13;;;;;;;10.36;65.60;99402.91;5095002;28;20184;-65
2022/01/04 02:20:13;;;;;;;4.93;4.53;;;;;;;10.47;65.95;99405.00;5094483;28;20199;-65
2022/01/04 02:22:40;;;;;;;5.43;5.03;;;;;;;10.58;65.33;99404.47;5094699;28;20241;-65
2022/01/04 02:25:08;;;;;;;6.73;6.23;;;;;;;10.63;65.53;99410.78;5094505;28;20228;-64
2022/01/04 02:27:38;;;;;;;7.43;6.67;;;;;;;10.66;65.48;99414.91;5094256;28;20725;-65
2022/01/04 02:30:06;;;;;;;7.33;6.37;;;;;;;10.69;65.14;99410.00;5094249;28;20219;-64
2022/01/04 02:32:33;;;;;;;7.23;5.70;;;;;;;10.72;65.56;99414.09;5094803;28;20213;-65
2022/01/04 02:35:00;;;;;;;5.10;4.70;;;;;;;10.70;65.51;99411.66;5094073;28;20211;-65
2022/01/04 02:37:30;;;;;;;5.43;4.97;;;;;;;10.66;65.24;99414.91;5094109;28;20731;-65
2022/01/04 02:39:57;;;;;;;4.67;4.37;;;;;;;10.53;65.77;99409.53;5094586;28;20227;-65
2022/01/04 02:42:24;;;;;;;4.90;4.50;;;;;;;10.52;65.67;99403.41;5094812;28;20190;-65
2022/01/04 02:44:51;;;;;;;5.27;4.80;;;;;;;10.50;65.50;99408.09;5094179;28;20229;-65
2022/01/04 02:47:19;;;;;;;4.53;4.13;;;;;;;10.51;65.79;99411.56;5095198;28;20192;-64
2022/01/04 02:49:46;;;;;;;4.33;4.13;;;;;;;10.43;65.88;99411.72;5093733;28;20192;-64
2022/01/04 02:52:13;;;;;;;8.00;4.90;;;;;;;10.33;65.77;99413.91;5093980;28;20208;-64
2022/01/04 02:54:41;;;;;;;4.70;4.40;;;;;;;10.07;66.85;99397.84;5094039;28;20196;-64
2022/01/04 02:57:08;;;;;;;5.23;4.73;;;;;;;10.02;67.37;99411.69;5093556;28;20541;-64
2022/01/04 02:59:35;;;;;;;6.87;4.47;;;;;;;10.06;67.04;99417.44;5093769;28;20268;-64
2022/01/04 03:02:02;;;;;;;5.17;4.60;;;;;;;10.01;67.73;99417.19;5094034;28;20236;-65
2022/01/04 03:04:29;;;;;;;4.80;4.30;;;;;;;9.62;69.20;99430.13;5094473;28;20230;-63
2022/01/04 03:06:55;;;;;;;5.17;4.63;;;;;;;9.43;69.95;99430.78;5093969;28;20632;-64
2022/01/04 03:09:22;;;;;;;5.07;4.70;;;;;;;9.20;70.41;99408.97;5093925;28;20191;-64
2022/01/04 03:11:50;;;;;;;5.60;5.20;;;;;;;9.11;71.27;99416.19;5093562;28;20565;-64
2022/01/04 03:14:17;;;;;;;5.43;4.67;;;;;;;9.11;70.88;99418.03;5094050;28;20230;-64
2022/01/04 03:16:44;;;;;;;5.17;4.87;;;;;;;9.03;71.96;99418.16;5093715;28;20192;-64
2022/01/04 03:19:10;;;;;;;4.90;4.60;;;;;;;9.03;71.53;99420.81;5093280;28;20651;-64
2022/01/04 03:21:39;;;;;;;4.77;4.37;;;;;;;9.10;71.41;99411.09;5094002;28;20244;-64
2022/01/04 03:24:08;;;;;;;5.30;4.80;;;;;;;8.98;71.88;99405.47;5093870;28;20195;-65
2022/01/04 03:26:36;;;;;;;5.20;4.80;;;;;;;8.91;72.07;99396.63;5093631;28;20195;-64
2022/01/04 03:29:05;;;;;;;6.07;5.13;;;;;;;8.73;72.49;99406.00;5092903;28;20214;-64
2022/01/04 03:31:32;;;;;;;5.73;5.10;;;;;;;8.72;71.88;99393.75;5093138;28;20658;-64
2022/01/04 03:34:00;;;;;;;5.03;4.73;;;;;;;8.64;71.81;99393.88;5093482;28;20191;-64
2022/01/04 03:36:26;;;;;;;6.03;5.30;;;;;;;8.63;73.21;99395.72;5093190;28;20187;-65
2022/01/04 03:38:54;;;;;;;5.47;4.93;;;;;;;8.50;72.61;99395.53;5093183;28;20249;-64
2022/01/04 03:41:23;;;;;;;5.67;5.17;;;;;;;8.56;73.35;99404.56;5093387;28;20977;-65
2022/01/04 03:43:50;;;;;;;5.77;5.37;;;;;;;8.71;73.45;99405.38;5093161;28;20260;-65
2022/01/04 03:46:19;;;;;;;6.50;5.30;;;;;;;8.70;73.15;99406.38;5092663;28;20654;-65
2022/01/04 03:48:46;;;;;;;5.30;4.90;;;;;;;8.70;72.28;99406.38;5093063;28;20256;-65
2022/01/04 03:51:13;;;;;;;7.90;7.03;;;;;;;8.55;72.69;99418.81;5092797;28;20191;-65
2022/01/04 03:53:40;;;;;;;18.50;13.63;;;;;;;8.50;72.72;99414.06;5092662;28;20662;-64
2022/01/04 03:56:07;;;;;;;6.93;6.33;;;;;;;8.52;73.76;99408.59;5093264;28;20275;-64
2022/01/04 03:58:34;;;;;;;6.23;5.73;;;;;;;8.44;73.56;99416.63;5092199;28;20731;-65
2022/01/04 04:01:02;;;;;;;6.20;5.67;;;;;;;8.39;73.84;99411.91;5092506;28;20576;-64
2022/01/04 04:03:30;;;;;;;5.70;5.23;;;;;;;8.25;74.20;99411.91;5093135;28;20198;-64
2022/01/04 04:05:56;;;;;;;20.70;13.17;;;;;;;8.28;73.79;99419.47;5092727;28;20199;-65
2022/01/04 04:08:23;;;;;;;10.03;5.60;;;;;;;8.34;74.51;99411.63;5092786;28;20203;-65
2022/01/04 04:10:50;;;;;;;6.37;4.93;;;;;;;8.32;73.52;99418.09;5091715;28;20662;-65
2022/01/04 04:13:16;;;;;;;6.33;5.80;;;;;;;8.31;73.77;99424.41;5092243;28;20242;-65
2022/01/04 04:15:44;;;;;;;6.60;5.93;;;;;;;8.40;73.44;99415.34;5092228;28;20244;-64
2022/01/04 04:18:13;;;;;;;7.00;6.50;;;;;;;8.46;73.47;99427.88;5092610;28;20570;-65
2022/01/04 04:20:42;;;;;;;7.67;6.13;;;;;;;8.52;73.95;99424.47;5092575;28;20194;-64
2022/01/04 04:23:08;;;;;;;14.03;9.47;;;;;;;8.59;73.38;99420.09;5092610;28;20199;-65
2022/01/04 04:25:35;;;;;;;6.83;5.93;;;;;;;8.65;72.87;99414.03;5092058;28;20220;-65
2022/01/04 04:28:02;;;;;;;7.50;6.80;;;;;;;8.54;72.85;99411.88;5092507;28;20191;-64
2022/01/04 04:30:29;;;;;;;6.03;5.40;;;;;;;8.41;72.71;99414.38;5092091;28;20240;-64
2022/01/04 04:32:56;;;;;;;6.40;5.90;;;;;;;8.43;73.10;99412.34;5092177;28;20195;-65
2022/01/04 04:35:23;;;;;;;6.20;5.80;;;;;;;8.45;72.91;99413.81;5091933;28;20775;-64
2022/01/04 04:37:51;;;;;;;9.57;7.67;;;;;;;8.36;73.69;99424.66;5091843;28;20203;-65
2022/01/04 04:40:18;;;;;;;9.57;8.60;;;;;;;8.26;74.10;99429.44;5091820;28;20234;-66
2022/01/04 04:42:45;;;;;;;8.90;7.77;;;;;;;8.23;74.09;99424.50;5091750;28;20191;-64
2022/01/04 04:45:12;;;;;;;6.50;6.03;;;;;;;8.16;74.03;99419.09;5091777;28;20195;-65
2022/01/04 04:47:38;;;;;;;7.37;6.43;;;;;;;8.07;74.27;99416.69;5092105;28;20195;-64
2022/01/04 04:50:06;;;;;;;9.27;7.43;;;;;;;8.14;74.12;99426.41;5091743;28;20762;-63
2022/01/04 04:52:33;;;;;;;13.83;8.67;;;;;;;8.10;73.92;99419.00;5091821;28;20191;-64
2022/01/04 04:55:01;;;;;;;10.17;7.40;;;;;;;7.94;73.88;99419.16;5091692;28;20226;-64
2022/01/04 04:57:28;;;;;;;7.23;6.40;;;;;;;8.08;74.03;99428.94;5091857;28;20195;-67
2022/01/04 04:59:55;;;;;;;10.00;7.47;;;;;;;8.27;74.07;99425.78;5091964;28;20195;-66
2022/01/04 05:02:21;;;;;;;10.43;7.27;;;;;;;8.38;73.35;99422.69;5091947;28;20195;-67
2022/01/04 05:04:48;;;;;;;10.10;7.70;;;;;;;8.52;72.92;99432.41;5092096;28;20200;-69
2022/01/04 05:07:15;;;;;;;14.03;8.13;;;;;;;8.56;72.92;99431.88;5092256;28;20195;-67
2022/01/04 05:09:41;;;;;;;7.47;6.77;;;;;;;8.53;72.35;99423.50;5091290;28;20199;-68
2022/01/04 05:12:11;;;;;;;7.97;6.50;;;;;;;8.60;72.75;99421.72;5094348;28;20759;-67
2022/01/04 05:14:39;;;;;;;6.90;6.30;;;;;;;8.69;72.73;99416.16;5095841;28;20221;-68
2022/01/04 05:17:06;;;;;;;8.83;6.30;;;;;;;8.60;72.30;99411.13;5095788;28;20723;-68
2022/01/04 05:19:32;;;;;;;8.30;6.00;;;;;;;8.56;72.36;99409.88;5111455;28;20187;-68
2022/01/04 05:21:59;;;;;;;7.63;6.73;;;;;;;8.58;72.17;99413.16;5112002;28;20195;-68
2022/01/04 05:24:26;;;;;;;7.23;6.03;;;;;;;8.65;72.10;99403.44;5115043;28;20195;-69
2022/01/04 05:26:52;;;;;;;9.87;6.00;;;;;;;8.75;71.65;99404.00;5113782;28;20213;-69
2022/01/04 05:29:20;;;;;;;6.70;5.30;;;;;;;8.81;71.71;99409.34;5113603;28;20618;-69
2022/01/04 05:31:47;;;;;;;7.00;5.20;;;;;;;8.88;70.59;99404.13;5113459;28;20195;-69
2022/01/04 05:34:14;;;;;;;7.87;5.77;;;;;;;8.94;71.08;99414.00;5113741;28;20267;-69
2022/01/04 05:36:41;;;;;;;10.60;5.93;;;;;;;8.97;70.25;99419.72;5113860;28;20272;-68
2022/01/04 05:39:08;;;;;;;19.10;7.47;;;;;;;8.97;70.21;99413.59;5113600;28;20194;-69
2022/01/04 05:41:34;;;;;;;8.57;6.47;;;;;;;9.07;70.60;99430.03;5115731;28;20258;-66
2022/01/04 05:44:01;;;;;;;10.17;6.20;;;;;;;9.10;70.68;99434.94;5115487;28;20244;-65
2022/01/04 05:46:29;;;;;;;15.93;6.23;;;;;;;9.14;70.13;99430.88;5115354;28;20198;-66
2022/01/04 05:48:56;;;;;;;12.53;7.43;;;;;;;9.20;69.30;99438.09;5115347;28;20259;-65
2022/01/04 05:51:23;;;;;;;16.80;8.07;;;;;;;9.24;69.86;99431.41;5115610;28;20194;-66
2022/01/04 05:53:49;;;;;;;16.07;7.27;;;;;;;9.29;69.28;99431.66;5115222;28;20251;-66
2022/01/04 05:56:16;;;;;;;14.27;8.00;;;;;;;9.31;69.52;99421.72;5114801;27;20218;-66
2022/01/04 05:58:43;;;;;;;19.27;6.93;;;;;;;9.32;69.74;99418.03;5115028;27;20654;-66
2022/01/04 06:01:10;;;;;;;18.10;7.53;;;;;;;9.36;69.73;99424.59;5114618;28;20244;-66
2022/01/04 06:03:38;;;;;;;24.30;8.07;;;;;;;9.40;69.60;99423.22;5115006;28;20228;-67
2022/01/04 06:06:05;;;;;;;16.80;8.03;;;;;;;9.42;68.62;99418.53;5114894;28;20198;-68
2022/01/04 06:08:35;;;;;;;16.93;7.80;;;;;;;9.48;68.73;99425.75;5114878;28;20246;-69
2022/01/04 06:11:01;;;;;;;9.17;6.80;;;;;;;9.64;79.33;99417.53;5108441;28;20187;-68
2022/01/04 06:16:12;;;;;;;13.57;8.73;;;;;;;9.82;68.36;99441.72;5103543;28;20261;-68
2022/01/04 06:18:42;;;;;;;22.40;8.67;;;;;;;9.88;68.77;99440.94;5103804;28;20247;-67
2022/01/04 06:21:10;;;;;;;28.33;7.47;;;;;;;9.87;67.82;99423.41;5103307;28;20183;-68
2022/01/04 06:23:37;;;;;;;11.60;7.43;;;;;;;10.08;67.06;99450.72;5103827;28;20218;-68
2022/01/04 06:26:05;;;;;;;14.17;6.93;;;;;;;10.19;66.98;99462.66;5093426;28;20203;-68
2022/01/04 06:28:32;;;;;;;11.97;6.00;;;;;;;10.38;65.55;99459.31;5094366;28;20249;-67
2022/01/04 06:30:59;;;;;;;14.17;7.37;;;;;;;10.53;66.69;99450.19;5094941;28;20282;-67
2022/01/04 06:33:26;;;;;;;13.23;6.47;;;;;;;10.75;64.39;99461.53;5091032;28;20252;-68
2022/01/04 06:35:54;;;;;;;33.00;8.83;;;;;;;10.84;63.61;99463.00;5104773;28;20298;-68
2022/01/04 06:38:21;;;;;;;12.23;9.10;;;;;;;10.96;63.67;99462.22;5086856;28;20277;-67
2022/01/04 06:40:48;;;;;;;10.83;7.83;;;;;;;11.06;62.79;99453.88;5099028;28;20227;-67
2022/01/04 06:43:15;;;;;;;15.60;8.70;;;;;;;11.16;62.47;99459.66;5106722;28;20222;-67
2022/01/04 06:45:41;;;;;;;17.53;8.20;;;;;;;11.20;62.81;99460.88;5112484;28;20617;-66
2022/01/04 06:48:09;;;;;;;21.67;8.83;;;;;;;11.24;62.64;99467.44;5113919;28;20252;-67
2022/01/04 06:50:36;;;;;;;14.27;8.10;;;;;;;11.16;62.79;99456.97;5114084;27;20215;-67
2022/01/04 06:53:04;;;;;;;21.20;8.67;;;;;;;11.26;62.94;99473.34;5109628;28;20272;-66
2022/01/04 06:55:31;;;;;;;16.17;8.13;;;;;;;11.28;62.76;99474.00;5113339;28;20299;-67
2022/01/04 06:57:58;;;;;;;23.37;8.77;;;;;;;11.35;62.68;99482.78;5111711;28;20246;-66
2022/01/04 07:00:24;;;;;;;22.40;9.53;;;;;;;11.40;62.86;99477.72;5112201;28;20202;-66
2022/01/04 07:02:51;;;;;;;19.57;7.90;;;;;;;11.50;63.13;99493.25;5112201;28;20197;-67
2022/01/04 07:05:18;;;;;;;10.10;8.10;;;;;;;11.63;61.37;99493.31;5111077;28;20196;-67
2022/01/04 07:07:45;;;;;;;17.27;7.63;;;;;;;11.68;60.99;99491.66;5092830;28;20192;-68
2022/01/04 07:10:13;;;;;;;21.67;8.47;;;;;;;11.65;60.79;99497.41;5092643;28;20194;-66
2022/01/04 07:12:39;;;;;;;16.53;8.90;;;;;;;11.76;60.42;99496.78;5103221;28;20205;-71
2022/01/04 07:15:08;;;;;;;41.73;15.73;;;;;;;11.90;59.71;99495.81;5113219;28;20661;-67
2022/01/04 07:17:39;;;;;;;57.20;23.80;;;;;;;12.00;59.38;99490.88;5113024;28;20222;-68
2022/01/04 07:20:07;;;;;;;57.03;22.37;;;;;;;11.88;58.76;99487.19;5113818;28;20193;-70
2022/01/04 07:22:33;;;;;;;48.63;24.53;;;;;;;11.88;58.88;99475.75;5112853;28;20186;-70
2022/01/04 07:25:01;;;;;;;38.93;22.03;;;;;;;11.90;59.30;99473.69;5113070;28;20197;-69
2022/01/04 07:27:29;;;;;;;33.40;15.70;;;;;;;12.15;66.32;99451.56;5113419;28;20194;-71
2022/01/04 07:29:56;;;;;;;42.17;16.40;;;;;;;12.50;59.21;99458.22;5113006;28;20215;-69
2022/01/04 07:32:23;;;;;;;30.17;13.73;;;;;;;12.75;59.77;99459.22;5106509;28;20202;-70
2022/01/04 07:34:49;;;;;;;36.27;16.97;;;;;;;12.83;56.44;99464.28;5106576;28;20198;-67
2022/01/04 07:37:16;;;;;;;42.83;17.07;;;;;;;12.85;56.03;99458.72;5106337;28;20217;-69
2022/01/04 07:39:43;;;;;;;28.63;13.73;;;;;;;12.81;55.83;99463.69;5102996;28;20226;-70
2022/01/04 07:42:09;;;;;;;24.03;12.50;;;;;;;12.85;55.64;99459.56;5110636;28;20899;-68
2022/01/04 07:44:37;;;;;;;31.57;13.00;;;;;;;13.00;56.26;99468.16;5104348;28;20268;-71
2022/01/04 07:47:04;;;;;;;33.33;11.80;;;;;;;13.24;55.95;99474.59;5107407;28;20187;-68
2022/01/04 07:49:31;;;;;;;34.90;12.90;;;;;;;13.50;54.76;99469.09;5111316;28;20259;-68
2022/01/04 07:51:58;;;;;;;52.77;21.97;;;;;;;13.65;53.64;99473.13;5092049;27;20203;-68
2022/01/04 07:54:24;;;;;;;45.13;18.10;;;;;;;13.90;52.95;99470.47;5108979;28;20239;-68
2022/01/04 07:56:51;;;;;;;33.00;13.10;;;;;;;14.17;51.89;99482.56;5112735;28;20286;-68
2022/01/04 07:59:18;;;;;;;53.87;20.43;;;;;;;14.41;50.30;99485.22;5093984;28;20203;-68
2022/01/04 08:01:46;;;;;;;37.33;12.33;;;;;;;14.65;50.00;99476.34;5091100;28;20257;-67
2022/01/04 08:04:13;;;;;;;17.70;10.63;;;;;;;14.88;48.80;99481.03;5092906;28;20268;-69
2022/01/04 08:06:40;;;;;;;10.27;9.10;;;;;;;15.09;47.78;99489.41;5111399;28;20195;-66
2022/01/04 08:09:06;;;;;;;9.93;8.93;;;;;;;15.33;47.17;99495.69;5096675;28;20221;-68
2022/01/04 08:11:33;;;;;;;13.80;6.83;;;;;;;15.50;46.58;99502.88;5104873;28;20247;-69
2022/01/04 08:14:00;;;;;;;7.70;6.27;;;;;;;15.77;45.73;99503.31;5111359;28;20669;-69
2022/01/04 08:16:26;;;;;;;11.67;7.83;;;;;;;16.18;48.67;99497.09;5111268;28;20295;-69
2022/01/04 08:18:54;;;;;;;15.00;7.27;;;;;;;16.75;47.51;99501.66;5100413;28;20203;-68
2022/01/04 08:21:21;;;;;;;10.93;7.50;;;;;;;17.25;43.19;99513.47;5097878;28;20267;-67
2022/01/04 08:23:48;;;;;;;23.03;9.63;;;;;;;17.63;43.97;99511.00;5110445;28;20662;-67
2022/01/04 08:26:16;;;;;;;25.87;13.23;;;;;;;17.65;42.72;99517.78;5111364;28;20198;-68
2022/01/04 08:28:42;;;;;;;30.70;13.40;;;;;;;17.58;41.73;99521.66;5109092;28;20281;-67
2022/01/04 08:31:10;;;;;;;36.53;12.90;;;;;;;17.37;43.09;99522.28;5109408;28;20264;-68
2022/01/04 08:33:37;;;;;;;30.37;13.83;;;;;;;17.36;42.96;99517.97;5111078;28;20281;-69
2022/01/04 08:36:07;;;;;;;25.30;12.83;;;;;;;17.51;41.70;99532.53;5093747;28;20223;-67
2022/01/04 08:38:34;;;;;;;24.30;13.10;;;;;;;17.67;43.89;99522.91;5089771;28;20186;-78
2022/01/04 08:41:01;;;;;;;25.83;11.93;;;;;;;17.90;41.66;99522.78;5101902;28;20226;-68
2022/01/04 08:43:28;;;;;;;18.40;12.03;;;;;;;18.14;41.12;99537.72;5109601;28;20696;-69
2022/01/04 08:45:54;;;;;;;32.33;13.40;;;;;;;18.21;39.87;99538.38;5085861;28;20500;-68
2022/01/04 08:48:21;;;;;;;27.50;15.47;;;;;;;18.13;39.49;99530.72;5089252;28;20192;-70
2022/01/04 08:50:48;;;;;;;30.73;15.00;;;;;;;18.03;40.02;99523.28;5092905;28;20735;-68
2022/01/04 08:53:17;;;;;;;25.37;14.03;;;;;;;18.02;39.65;99515.47;5099981;28;20615;-67
2022/01/04 08:55:44;;;;;;;19.17;12.27;;;;;;;18.05;39.31;99504.25;5091363;28;20195;-67
2022/01/04 08:58:11;;;;;;;16.67;12.30;;;;;;;18.10;39.58;99501.63;5114561;28;20285;-66
2022/01/04 09:00:38;;;;;;;19.07;11.77;;;;;;;18.14;38.85;99497.41;5109012;28;20191;-69
2022/01/04 09:03:04;;;;;;;20.87;12.03;;;;;;;18.26;39.20;99508.88;5094029;28;20244;-66
2022/01/04 09:05:31;;;;;;;23.60;11.70;;;;;;;18.20;38.94;99501.78;5095471;28;20252;-68
2022/01/04 09:07:58;;;;;;;16.57;11.30;;;;;;;18.33;39.68;99499.59;5104655;28;20606;-67
2022/01/04 09:10:26;;;;;;;18.63;11.77;;;;;;;18.41;38.90;99498.38;5099643;28;20242;-68
2022/01/04 09:12:59;;;;;;;77.80;14.47;;;;;;;18.31;41.81;99471.31;5094905;28;20193;-72
2022/01/04 09:15:46;;;;;;;29.60;11.10;;;;;;;18.59;39.97;99479.28;5094887;28;20275;-73
2022/01/04 09:20:57;;;;;;;20.80;10.63;;;;;;;19.14;37.92;99471.91;5094578;28;20184;-67
2022/01/04 09:23:24;;;;;;;25.30;11.33;;;;;;;19.04;37.64;99478.00;5094103;28;20191;-68
2022/01/04 09:25:54;;;;;;;23.20;10.37;;;;;;;18.77;37.44;99470.91;5094822;28;20207;-68
2022/01/04 09:28:22;;;;;;;16.57;11.33;;;;;;;18.30;38.05;99464.31;5095558;28;20196;-68
2022/01/04 09:30:51;;;;;;;33.33;10.87;;;;;;;18.19;38.65;99466.03;5095305;28;20276;-67
2022/01/04 09:33:19;;;;;;;20.93;11.80;;;;;;;18.24;38.13;99465.28;5094825;28;20723;-68
2022/01/04 09:35:46;;;;;;;19.10;10.00;;;;;;;18.17;38.10;99464.66;5092650;28;20187;-68
2022/01/04 09:38:14;;;;;;;26.73;10.00;;;;;;;18.02;38.25;99456.34;5103865;28;20205;-68
2022/01/04 09:40:40;;;;;;;27.30;9.67;;;;;;;17.98;37.82;99447.13;5104833;27;20225;-66
2022/01/04 09:43:09;;;;;;;94.80;14.30;;;;;;;18.01;38.09;99444.75;5093736;28;20191;-66
2022/01/04 09:45:37;;;;;;;36.53;10.20;;;;;;;17.99;38.17;99430.75;5111935;28;20195;-67
2022/01/04 09:48:04;;;;;;;9.80;6.57;;;;;;;18.10;38.58;99429.03;5102032;27;20199;-71
2022/01/04 09:50:32;;;;;;;9.47;7.20;;;;;;;18.11;37.03;99422.59;5093591;28;20192;-66
2022/01/04 09:53:00;;;;;;;55.23;9.43;;;;;;;18.13;37.53;99415.13;5111680;27;20195;-66
2022/01/04 09:55:27;;;;;;;19.87;7.20;;;;;;;17.91;37.44;99406.16;5098222;28;20625;-66
2022/01/04 09:57:56;;;;;;;12.37;5.07;;;;;;;17.71;38.88;99403.16;5092346;28;20215;-67
2022/01/04 10:00:24;;;;;;;27.03;6.20;;;;;;;17.77;38.29;99405.66;5099433;28;20189;-68
2022/01/04 10:02:51;;;;;;;17.10;5.90;;;;;;;17.80;37.67;99393.63;5113445;28;20201;-68
2022/01/04 10:05:21;;;;;;;5.07;4.50;;;;;;;17.70;37.88;99398.84;5114760;28;20202;-67
2022/01/04 10:07:49;;;;;;;5.47;4.50;;;;;;;17.64;38.07;99389.06;5114770;28;20195;-67
2022/01/04 10:10:18;;;;;;;23.63;5.43;;;;;;;17.63;37.85;99390.13;5112255;28;20195;-72
2022/01/04 10:12:51;;;;;;;5.03;4.60;;;;;;;17.69;37.85;99386.47;5114414;28;20186;-68
2022/01/04 10:15:36;;;;;;;14.00;5.37;;;;;;;17.83;39.91;99377.00;5109156;28;20214;-75
2022/01/04 10:18:17;;;;;;;11.50;5.00;;;;;;;18.06;35.91;99383.03;5099841;28;20316;-70
2022/01/04 10:20:46;;;;;;;7.60;4.43;;;;;;;18.19;34.91;99381.84;5100709;28;20195;-71
2022/01/04 10:23:16;;;;;;;5.27;4.63;;;;;;;18.26;34.34;99379.81;5115576;28;20276;-70
2022/01/04 10:25:44;;;;;;;15.00;5.07;;;;;;;18.33;34.92;99373.19;5114278;28;20280;-71
2022/01/04 10:28:12;;;;;;;20.27;5.67;;;;;;;18.45;34.67;99371.22;5114204;28;20208;-69
2022/01/04 10:30:43;;;;;;;4.90;4.50;;;;;;;18.37;34.99;99365.44;5113969;27;20191;-73
2022/01/04 10:33:12;;;;;;;8.77;4.50;;;;;;;18.30;34.99;99349.47;5106647;28;20193;-71
2022/01/04 10:35:40;;;;;;;10.27;5.17;;;;;;;18.31;35.13;99350.28;5092877;28;20859;-71
2022/01/04 10:38:14;;;;;;;8.47;5.53;;;;;;;18.06;35.35;99336.50;5098844;28;20317;-73
2022/01/04 10:40:43;;;;;;;10.53;5.97;;;;;;;18.06;35.55;99333.81;5100996;28;20254;-69
2022/01/04 10:43:12;;;;;;;10.13;5.67;;;;;;;18.13;35.31;99329.88;5113237;28;20195;-72
2022/01/04 10:45:42;;;;;;;7.33;6.50;;;;;;;18.28;35.40;99324.72;5111601;28;20191;-75
2022/01/04 10:48:17;;;;;;;9.87;7.20;;;;;;;18.44;35.05;99326.56;5113532;28;20187;-73
2022/01/04 10:50:47;;;;;;;16.33;7.77;;;;;;;18.57;34.66;99320.81;5113176;28;20187;-72
2022/01/04 10:53:17;;;;;;;9.17;7.27;;;;;;;18.62;34.21;99312.00;5113067;28;20244;-70
2022/01/04 10:55:44;;;;;;;15.60;7.20;;;;;;;18.70;33.99;99314.22;5113033;28;20642;-68
2022/01/04 10:58:21;;;;;;;14.60;7.80;;;;;;;18.82;34.22;99301.41;5113971;28;20219;-70
2022/01/04 11:00:55;;;;;;;15.17;8.17;;;;;;;18.95;34.08;99306.41;5113254;28;20266;-69
2022/01/04 11:03:24;;;;;;;14.17;8.07;;;;;;;19.05;34.22;99301.13;5113052;28;20610;-68
2022/01/04 11:06:01;;;;;;;8.97;7.07;;;;;;;19.12;33.07;99301.72;5108853;28;20207;-68
2022/01/04 11:08:29;;;;;;;10.77;7.23;;;;;;;19.07;33.11;99301.69;5091760;28;20585;-69
2022/01/04 11:10:56;;;;;;;13.17;7.57;;;;;;;18.99;33.08;99296.78;5092404;28;20191;-64
2022/01/04 11:13:23;;;;;;;15.10;6.17;;;;;;;19.01;32.99;99305.38;5091330;28;20262;-67
2022/01/04 11:15:50;;;;;;;13.67;6.87;;;;;;;19.01;32.36;99305.38;5092189;28;20282;-66
2022/01/04 11:18:19;;;;;;;10.40;5.70;;;;;;;18.61;32.76;99299.56;5091660;28;20221;-68
2022/01/04 11:20:46;;;;;;;5.77;5.17;;;;;;;18.64;32.68;99296.38;5091284;28;20193;-67
2022/01/04 11:23:15;;;;;;;8.00;5.83;;;;;;;18.74;33.11;99288.44;5091394;28;20259;-68
2022/01/04 11:25:45;;;;;;;10.03;6.30;;;;;;;18.75;33.44;99287.38;5107168;28;20186;-67
2022/01/04 11:28:16;;;;;;;10.07;6.50;;;;;;;18.83;32.99;99285.00;5111871;28;20201;-67
2022/01/04 11:31:06;;;;;;;20.60;7.00;;;;;;;18.91;32.80;99283.75;5113156;28;20191;-66
2022/01/04 11:33:47;;;;;;;7.30;5.63;;;;;;;18.82;32.83;99285.25;5109223;28;20195;-66
2022/01/04 11:36:15;;;;;;;8.20;5.70;;;;;;;18.71;32.91;99278.19;5112402;28;20189;-66
2022/01/04 11:38:42;;;;;;;5.83;5.20;;;;;;;18.77;32.81;99271.75;5111873;28;20605;-67